Terminal Aerodrome Forecast
Issued by NWS

Home | Current Version | Previous Version | Text Only | Print | Product List | Glossary On
Versions: 1 2 3 4 5 6 7 8 9 10 11 12 13 14 15
000
FTUS45 KBOU 172055 AAB
TAFAPA
TAF AMD
KAPA 172055Z 1721/1818 20012G19KT P6SM FEW090 SCT220
     FM172200 32011KT P6SM VCTS SCT090CB SCT140 BKN220
      TEMPO 1722/1724 VRB15G30KT -TSRA
     FM180200 22011KT P6SM FEW140 SCT220
     FM181500 VRB05KT P6SM FEW120=

USA.gov is the U.S. government's official web portal to all federal, state and local government web resources and services.